sensor_id;sensor_type;location;lat;lon;timestamp;pressure;altitude;pressure_sealevel;temperature;humidity
15794;BME280;7999;51.208;4.244;2023-02-11T00:00:26;103567.63;;;4.77;100.00
15794;BME280;7999;51.208;4.244;2023-02-11T00:02:53;103563.56;;;4.80;100.00
15794;BME280;7999;51.208;4.244;2023-02-11T00:05:19;103566.06;;;4.79;100.00
15794;BME280;7999;51.208;4.244;2023-02-11T00:07:46;103567.16;;;4.82;100.00
15794;BME280;7999;51.208;4.244;2023-02-11T00:10:13;103564.47;;;4.81;100.00
15794;BME280;7999;51.208;4.244;2023-02-11T00:12:39;103561.09;;;4.82;100.00
15794;BME280;7999;51.208;4.244;2023-02-11T00:15:07;103541.16;;;4.79;100.00
15794;BME280;7999;51.208;4.244;2023-02-11T00:17:36;103529.56;;;4.73;100.00
15794;BME280;7999;51.208;4.244;2023-02-11T00:20:03;103528.47;;;4.69;100.00
15794;BME280;7999;51.208;4.244;2023-02-11T00:22:29;103538.28;;;4.75;100.00
15794;BME280;7999;51.208;4.244;2023-02-11T00:24:56;103531.16;;;4.71;100.00
15794;BME280;7999;51.208;4.244;2023-02-11T00:27:23;103518.38;;;4.72;100.00
15794;BME280;7999;51.208;4.244;2023-02-11T00:29:50;103515.69;;;4.71;100.00
15794;BME280;7999;51.208;4.244;2023-02-11T00:32:16;103511.53;;;4.73;100.00
15794;BME280;7999;51.208;4.244;2023-02-11T00:34:44;103504.50;;;4.70;100.00
15794;BME280;7999;51.208;4.244;2023-02-11T00:37:11;103499.44;;;4.72;100.00
15794;BME280;7999;51.208;4.244;2023-02-11T00:39:40;103493.09;;;4.67;100.00
15794;BME280;7999;51.208;4.244;2023-02-11T00:42:07;103495.09;;;4.71;100.00
15794;BME280;7999;51.208;4.244;2023-02-11T00:44:34;103497.06;;;4.75;100.00
15794;BME280;7999;51.208;4.244;2023-02-11T00:47:00;103488.75;;;4.79;100.00
15794;BME280;7999;51.208;4.244;2023-02-11T00:49:27;103488.75;;;4.79;100.00
15794;BME280;7999;51.208;4.244;2023-02-11T00:51:55;103481.50;;;4.86;100.00
15794;BME280;7999;51.208;4.244;2023-02-11T00:54:22;103481.91;;;4.79;100.00
15794;BME280;7999;51.208;4.244;2023-02-11T00:56:48;103488.94;;;4.82;100.00
15794;BME280;7999;51.208;4.244;2023-02-11T00:59:15;103486.94;;;4.78;100.00
15794;BME280;7999;51.208;4.244;2023-02-11T01:01:42;103490.91;;;4.86;100.00
15794;BME280;7999;51.208;4.244;2023-02-11T01:04:09;103494.09;;;4.82;100.00
15794;BME280;7999;51.208;4.244;2023-02-11T01:06:36;103493.41;;;4.84;100.00
15794;BME280;7999;51.208;4.244;2023-02-11T01:09:05;103489.81;;;4.82;100.00
15794;BME280;7999;51.208;4.244;2023-02-11T01:11:33;103492.31;;;4.81;100.00
15794;BME280;7999;51.208;4.244;2023-02-11T01:14:00;103492.31;;;4.81;100.00
15794;BME280;7999;51.208;4.244;2023-02-11T01:16:27;103498.84;;;4.76;100.00
15794;BME280;7999;51.208;4.244;2023-02-11T01:18:54;103500.72;;;4.78;100.00
15794;BME280;7999;51.208;4.244;2023-02-11T01:21:20;103501.13;;;4.84;100.00
15794;BME280;7999;51.208;4.244;2023-02-11T01:23:49;103517.88;;;4.91;100.00
15794;BME280;7999;51.208;4.244;2023-02-11T01:26:17;103519.66;;;4.92;100.00
15794;BME280;7999;51.208;4.244;2023-02-11T01:28:44;103524.25;;;4.96;100.00
15794;BME280;7999;51.208;4.244;2023-02-11T01:31:11;103523.38;;;4.95;100.00
15794;BME280;7999;51.208;4.244;2023-02-11T01:33:40;103517.50;;;4.98;100.00
15794;BME280;7999;51.208;4.244;2023-02-11T01:36:07;103510.25;;;5.06;100.00
15794;BME280;7999;51.208;4.244;2023-02-11T01:38:34;103509.19;;;5.02;100.00
15794;BME280;7999;51.208;4.244;2023-02-11T01:41:02;103506.13;;;4.94;100.00
15794;BME280;7999;51.208;4.244;2023-02-11T01:43:34;103513.25;;;4.99;100.00
15794;BME280;7999;51.208;4.244;2023-02-11T01:46:02;103512.56;;;5.01;100.00
15794;BME280;7999;51.208;4.244;2023-02-11T01:48:31;103492.81;;;5.02;100.00
15794;BME280;7999;51.208;4.244;2023-02-11T01:51:01;103498.56;;;4.97;100.00
15794;BME280;7999;51.208;4.244;2023-02-11T01:53:28;103491.94;;;5.01;100.00
15794;BME280;7999;51.208;4.244;2023-02-11T01:56:13;103485.19;;;5.03;100.00
15794;BME280;7999;51.208;4.244;2023-02-11T01:59:00;103488.97;;;4.95;100.00
15794;BME280;7999;51.208;4.244;2023-02-11T02:01:28;103491.94;;;5.01;100.00
15794;BME280;7999;51.208;4.244;2023-02-11T02:03:58;103494.41;;;5.00;100.00
15794;BME280;7999;51.208;4.244;2023-02-11T02:06:29;103498.47;;;5.09;100.00
15794;BME280;7999;51.208;4.244;2023-02-11T02:08:58;103493.09;;;5.19;100.00
15794;BME280;7999;51.208;4.244;2023-02-11T02:11:27;103494.91;;;5.20;100.00
15794;BME280;7999;51.208;4.244;2023-02-11T02:13:54;103491.31;;;5.18;100.00
15794;BME280;7999;51.208;4.244;2023-02-11T02:16:23;103485.56;;;5.22;100.00
15794;BME280;7999;51.208;4.244;2023-02-11T02:19:01;103492.91;;;5.16;100.00
15794;BME280;7999;51.208;4.244;2023-02-11T02:24:29;103508.97;;;5.25;100.00
15794;BME280;7999;51.208;4.244;2023-02-11T02:27:07;103507.56;;;5.31;100.00
15794;BME280;7999;51.208;4.244;2023-02-11T02:29:55;103502.41;;;5.31;100.00
15794;BME280;7999;51.208;4.244;2023-02-11T02:32:34;103487.94;;;5.33;100.00
15794;BME280;7999;51.208;4.244;2023-02-11T02:35:08;103488.91;;;5.35;100.00
15794;BME280;7999;51.208;4.244;2023-02-11T02:37:39;103492.06;;;5.44;100.00
15794;BME280;7999;51.208;4.244;2023-02-11T02:40:10;103493.47;;;5.39;100.00
15794;BME280;7999;51.208;4.244;2023-02-11T02:42:38;103475.22;;;5.36;100.00
15794;BME280;7999;51.208;4.244;2023-02-11T02:45:07;103479.50;;;5.35;100.00
15794;BME280;7999;51.208;4.244;2023-02-11T02:47:36;103476.94;;;5.22;100.00
15794;BME280;7999;51.208;4.244;2023-02-11T02:50:02;103478.03;;;5.25;100.00
15794;BME280;7999;51.208;4.244;2023-02-11T02:52:31;103469.50;;;5.26;100.00
15794;BME280;7999;51.208;4.244;2023-02-11T02:55:06;103483.88;;;5.23;100.00
15794;BME280;7999;51.208;4.244;2023-02-11T02:57:37;103483.75;;;5.35;100.00
15794;BME280;7999;51.208;4.244;2023-02-11T03:00:12;103481.03;;;5.46;100.00
15794;BME280;7999;51.208;4.244;2023-02-11T03:02:43;103477.28;;;5.41;100.00
15794;BME280;7999;51.208;4.244;2023-02-11T03:05:15;103475.59;;;5.42;100.00
15794;BME280;7999;51.208;4.244;2023-02-11T03:07:43;103468.84;;;5.44;100.00
15794;BME280;7999;51.208;4.244;2023-02-11T03:10:14;103459.94;;;5.39;100.00
15794;BME280;7999;51.208;4.244;2023-02-11T03:12:42;103459.66;;;5.34;100.00
15794;BME280;7999;51.208;4.244;2023-02-11T03:15:10;103451.22;;;5.37;100.00
15794;BME280;7999;51.208;4.244;2023-02-11T03:17:38;103452.81;;;5.35;100.00
15794;BME280;7999;51.208;4.244;2023-02-11T03:20:08;103450.59;;;5.41;100.00
15794;BME280;7999;51.208;4.244;2023-02-11T03:22:37;103452.47;;;5.43;100.00
15794;BME280;7999;51.208;4.244;2023-02-11T03:25:06;103457.97;;;5.35;100.00
15794;BME280;7999;51.208;4.244;2023-02-11T03:27:34;103470.16;;;5.37;100.00
15794;BME280;7999;51.208;4.244;2023-02-11T03:30:05;103462.31;;;5.49;100.00
15794;BME280;7999;51.208;4.244;2023-02-11T03:32:37;103464.09;;;5.50;100.00
15794;BME280;7999;51.208;4.244;2023-02-11T03:35:06;103465.69;;;5.48;100.00
15794;BME280;7999;51.208;4.244;2023-02-11T03:37:35;103471.22;;;5.54;100.00
15794;BME280;7999;51.208;4.244;2023-02-11T03:40:05;103479.25;;;5.58;100.00
15794;BME280;7999;51.208;4.244;2023-02-11T03:42:34;103469.63;;;5.56;100.00
15794;BME280;7999;51.208;4.244;2023-02-11T03:45:05;103469.66;;;5.71;100.00
15794;BME280;7999;51.208;4.244;2023-02-11T03:47:33;103456.06;;;5.73;100.00
15794;BME280;7999;51.208;4.244;2023-02-11T03:50:01;103472.72;;;5.50;100.00
15794;BME280;7999;51.208;4.244;2023-02-11T03:52:29;103468.16;;;5.46;100.00
15794;BME280;7999;51.208;4.244;2023-02-11T03:54:58;103483.72;;;5.61;100.00
15794;BME280;7999;51.208;4.244;2023-02-11T03:57:28;103475.41;;;5.52;100.00
15794;BME280;7999;51.208;4.244;2023-02-11T03:59:55;103486.72;;;5.54;100.00
15794;BME280;7999;51.208;4.244;2023-02-11T04:02:24;103481.75;;;5.57;100.00
15794;BME280;7999;51.208;4.244;2023-02-11T04:04:52;103472.81;;;5.52;100.00
15794;BME280;7999;51.208;4.244;2023-02-11T04:07:19;103474.00;;;5.57;100.00
15794;BME280;7999;51.208;4.244;2023-02-11T04:09:45;103475.31;;;5.50;100.00
15794;BME280;7999;51.208;4.244;2023-02-11T04:12:13;103472.94;;;5.40;100.00
15794;BME280;7999;51.208;4.244;2023-02-11T04:14:40;103481.75;;;5.44;100.00
15794;BME280;7999;51.208;4.244;2023-02-11T04:17:07;103485.13;;;5.43;100.00
15794;BME280;7999;51.208;4.244;2023-02-11T04:19:33;103478.38;;;5.45;100.00
15794;BME280;7999;51.208;4.244;2023-02-11T04:22:00;103479.75;;;5.53;100.00
15794;BME280;7999;51.208;4.244;2023-02-11T04:24:27;103475.09;;;5.47;100.00
15794;BME280;7999;51.208;4.244;2023-02-11T04:26:54;103470.63;;;5.45;100.00
15794;BME280;7999;51.208;4.244;2023-02-11T04:29:22;103483.75;;;5.35;100.00
15794;BME280;7999;51.208;4.244;2023-02-11T04:31:49;103481.00;;;5.32;100.00
15794;BME280;7999;51.208;4.244;2023-02-11T04:34:15;103479.81;;;5.26;100.00
15794;BME280;7999;51.208;4.244;2023-02-11T04:36:42;103483.38;;;5.28;100.00
15794;BME280;7999;51.208;4.244;2023-02-11T04:39:09;103486.38;;;5.21;100.00
15794;BME280;7999;51.208;4.244;2023-02-11T04:41:35;103481.00;;;5.18;100.00
15794;BME280;7999;51.208;4.244;2023-02-11T04:44:02;103485.47;;;5.21;100.00
15794;BME280;7999;51.208;4.244;2023-02-11T04:46:30;103475.63;;;5.28;100.00
15794;BME280;7999;51.208;4.244;2023-02-11T04:48:57;103481.22;;;5.21;100.00
15794;BME280;7999;51.208;4.244;2023-02-11T04:51:24;103473.66;;;5.11;100.00
15794;BME280;7999;51.208;4.244;2023-02-11T04:53:51;103488.56;;;5.02;100.00
15794;BME280;7999;51.208;4.244;2023-02-11T04:56:18;103482.19;;;5.10;100.00
15794;BME280;7999;51.208;4.244;2023-02-11T04:58:44;103488.75;;;5.05;100.00
15794;BME280;7999;51.208;4.244;2023-02-11T05:01:12;103493.72;;;5.02;100.00
15794;BME280;7999;51.208;4.244;2023-02-11T05:03:41;103480.91;;;5.04;100.00
15794;BME280;7999;51.208;4.244;2023-02-11T05:06:08;103472.09;;;5.00;100.00
15794;BME280;7999;51.208;4.244;2023-02-11T05:08:35;103470.91;;;4.95;100.00
15794;BME280;7999;51.208;4.244;2023-02-11T05:11:01;103460.78;;;4.98;100.00
15794;BME280;7999;51.208;4.244;2023-02-11T05:13:28;103464.47;;;5.02;100.00
15794;BME280;7999;51.208;4.244;2023-02-11T05:15:55;103460.38;;;4.92;100.00
15794;BME280;7999;51.208;4.244;2023-02-11T05:18:22;103460.19;;;4.89;100.00
15794;BME280;7999;51.208;4.244;2023-02-11T05:20:50;103463.97;;;4.94;100.00
15794;BME280;7999;51.208;4.244;2023-02-11T05:23:23;103465.06;;;4.97;100.00
15794;BME280;7999;51.208;4.244;2023-02-11T05:25:49;103460.38;;;4.92;100.00
15794;BME280;7999;51.208;4.244;2023-02-11T05:28:16;103455.22;;;4.92;100.00
15794;BME280;7999;51.208;4.244;2023-02-11T05:30:42;103457.00;;;4.93;100.00
15794;BME280;7999;51.208;4.244;2023-02-11T05:33:09;103456.50;;;4.85;100.00
15794;BME280;7999;51.208;4.244;2023-02-11T05:35:36;103458.22;;;4.98;100.00
15794;BME280;7999;51.208;4.244;2023-02-11T05:38:04;103462.59;;;4.99;100.00
15794;BME280;7999;51.208;4.244;2023-02-11T05:40:30;103460.59;;;4.95;100.00
15794;BME280;7999;51.208;4.244;2023-02-11T05:42:57;103457.00;;;4.93;100.00
15794;BME280;7999;51.208;4.244;2023-02-11T05:45:24;103454.63;;;4.83;100.00
15794;BME280;7999;51.208;4.244;2023-02-11T05:47:51;103453.16;;;4.86;100.00
15794;BME280;7999;51.208;4.244;2023-02-11T05:50:17;103457.41;;;4.86;100.00
15794;BME280;7999;51.208;4.244;2023-02-11T05:52:45;103464.25;;;4.85;100.00
15794;BME280;7999;51.208;4.244;2023-02-11T05:55:13;103465.13;;;4.86;100.00
15794;BME280;7999;51.208;4.244;2023-02-11T05:57:42;103462.94;;;4.92;100.00
15794;BME280;7999;51.208;4.244;2023-02-11T06:00:09;103452.44;;;4.89;100.00
15794;BME280;7999;51.208;4.244;2023-02-11T06:02:39;103452.34;;;4.87;100.00
15794;BME280;7999;51.208;4.244;2023-02-11T06:05:06;103452.25;;;4.86;100.00
15794;BME280;7999;51.208;4.244;2023-02-11T06:07:33;103456.81;;;4.90;100.00
15794;BME280;7999;51.208;4.244;2023-02-11T06:09:59;103474.28;;;4.94;100.00
15794;BME280;7999;51.208;4.244;2023-02-11T06:12:28;103484.47;;;5.06;100.00
15794;BME280;7999;51.208;4.244;2023-02-11T06:14:55;103488.34;;;4.99;100.00
15794;BME280;7999;51.208;4.244;2023-02-11T06:17:22;103487.16;;;5.07;100.00
15794;BME280;7999;51.208;4.244;2023-02-11T06:19:49;103482.00;;;5.07;100.00
15794;BME280;7999;51.208;4.244;2023-02-11T06:22:16;103479.22;;;5.17;100.00
15794;BME280;7999;51.208;4.244;2023-02-11T06:24:43;103476.06;;;5.21;100.00
15794;BME280;7999;51.208;4.244;2023-02-11T06:27:09;103468.69;;;5.14;100.00
15794;BME280;7999;51.208;4.244;2023-02-11T06:29:37;103477.22;;;5.13;100.00
15794;BME280;7999;51.208;4.244;2023-02-11T06:32:04;103480.00;;;5.16;100.00
15794;BME280;7999;51.208;4.244;2023-02-11T06:34:30;103482.19;;;5.10;100.00
15794;BME280;7999;51.208;4.244;2023-02-11T06:36:57;103475.44;;;5.25;100.00
15794;BME280;7999;51.208;4.244;2023-02-11T06:39:24;103468.88;;;5.31;100.00
15794;BME280;7999;51.208;4.244;2023-02-11T06:41:50;103458.09;;;5.23;100.00
15794;BME280;7999;51.208;4.244;2023-02-11T06:44:17;103454.72;;;5.24;100.00
15794;BME280;7999;51.208;4.244;2023-02-11T06:46:45;103458.00;;;5.21;100.00
15794;BME280;7999;51.208;4.244;2023-02-11T06:49:12;103462.56;;;5.12;100.00
15794;BME280;7999;51.208;4.244;2023-02-11T06:51:39;103470.47;;;5.15;100.00
15794;BME280;7999;51.208;4.244;2023-02-11T06:54:06;103470.91;;;5.21;100.00
15794;BME280;7999;51.208;4.244;2023-02-11T06:56:33;103470.00;;;5.21;100.00
15794;BME280;7999;51.208;4.244;2023-02-11T06:59:01;103470.00;;;5.21;100.00
15794;BME280;7999;51.208;4.244;2023-02-11T07:01:27;103471.47;;;5.17;100.00
15794;BME280;7999;51.208;4.244;2023-02-11T07:03:55;103454.72;;;5.24;100.00
15794;BME280;7999;51.208;4.244;2023-02-11T07:06:23;103449.16;;;5.31;100.00
15794;BME280;7999;51.208;4.244;2023-02-11T07:08:52;103452.44;;;5.15;100.00
15794;BME280;7999;51.208;4.244;2023-02-11T07:11:19;103455.81;;;5.14;100.00
15794;BME280;7999;51.208;4.244;2023-02-11T07:13:49;103467.94;;;5.02;100.00
15794;BME280;7999;51.208;4.244;2023-02-11T07:16:16;103483.41;;;5.02;100.00
15794;BME280;7999;51.208;4.244;2023-02-11T07:18:44;103497.28;;;5.04;100.00
15794;BME280;7999;51.208;4.244;2023-02-11T07:21:12;103493.09;;;5.06;100.00
15794;BME280;7999;51.208;4.244;2023-02-11T07:23:39;103494.69;;;5.17;100.00
15794;BME280;7999;51.208;4.244;2023-02-11T07:26:07;103506.31;;;5.24;100.00
15794;BME280;7999;51.208;4.244;2023-02-11T07:28:34;103497.47;;;5.20;100.00
15794;BME280;7999;51.208;4.244;2023-02-11T07:31:04;103499.13;;;5.20;100.00
15794;BME280;7999;51.208;4.244;2023-02-11T07:33:31;103497.97;;;5.28;100.00
15794;BME280;7999;51.208;4.244;2023-02-11T07:35:58;103509.56;;;5.35;100.00
15794;BME280;7999;51.208;4.244;2023-02-11T07:38:26;103520.56;;;5.32;100.00
15794;BME280;7999;51.208;4.244;2023-02-11T07:40:53;103530.78;;;5.31;100.00
15794;BME280;7999;51.208;4.244;2023-02-11T07:43:20;103531.09;;;5.35;100.00
15794;BME280;7999;51.208;4.244;2023-02-11T07:45:46;103532.97;;;5.51;100.00
15794;BME280;7999;51.208;4.244;2023-02-11T07:48:13;103521.81;;;5.65;100.00
15794;BME280;7999;51.208;4.244;2023-02-11T07:50:40;103520.03;;;5.64;100.00
15794;BME280;7999;51.208;4.244;2023-02-11T07:53:06;103536.78;;;5.71;100.00
15794;BME280;7999;51.208;4.244;2023-02-11T07:55:34;103531.94;;;5.62;100.00
15794;BME280;7999;51.208;4.244;2023-02-11T07:58:01;103537.09;;;5.75;100.00
15794;BME280;7999;51.208;4.244;2023-02-11T08:00:28;103529.44;;;5.64;100.00
15794;BME280;7999;51.208;4.244;2023-02-11T08:02:55;103533.72;;;5.63;100.00
15794;BME280;7999;51.208;4.244;2023-02-11T08:05:22;103532.72;;;5.61;100.00
15794;BME280;7999;51.208;4.244;2023-02-11T08:07:49;103538.69;;;5.60;100.00
15794;BME280;7999;51.208;4.244;2023-02-11T08:10:16;103534.28;;;5.72;100.00
15794;BME280;7999;51.208;4.244;2023-02-11T08:12:44;103535.50;;;5.77;100.00
15794;BME280;7999;51.208;4.244;2023-02-11T08:15:11;103538.44;;;5.83;100.00
15794;BME280;7999;51.208;4.244;2023-02-11T08:17:37;103543.44;;;5.80;100.00
15794;BME280;7999;51.208;4.244;2023-02-11T08:20:04;103548.59;;;5.80;100.00
15794;BME280;7999;51.208;4.244;2023-02-11T08:22:31;103551.44;;;5.85;100.00
15794;BME280;7999;51.208;4.244;2023-02-11T08:24:58;103546.47;;;5.88;100.00
15794;BME280;7999;51.208;4.244;2023-02-11T08:27:25;103543.25;;;5.77;100.00
15794;BME280;7999;51.208;4.244;2023-02-11T08:29:53;103547.19;;;5.85;100.00
15794;BME280;7999;51.208;4.244;2023-02-11T08:32:20;103554.72;;;5.96;100.00
15794;BME280;7999;51.208;4.244;2023-02-11T08:34:49;103556.50;;;5.97;100.00
15794;BME280;7999;51.208;4.244;2023-02-11T08:37:16;103559.88;;;5.96;100.00
15794;BME280;7999;51.208;4.244;2023-02-11T08:39:43;103555.59;;;6.09;100.00
15794;BME280;7999;51.208;4.244;2023-02-11T08:42:11;103562.44;;;6.09;100.00
15794;BME280;7999;51.208;4.244;2023-02-11T08:44:39;103557.47;;;6.12;100.00
15794;BME280;7999;51.208;4.244;2023-02-11T08:47:07;103565.81;;;6.08;100.00
15794;BME280;7999;51.208;4.244;2023-02-11T08:49:34;103571.34;;;6.14;100.00
15794;BME280;7999;51.208;4.244;2023-02-11T08:52:01;103566.03;;;6.26;100.00
15794;BME280;7999;51.208;4.244;2023-02-11T08:54:29;103576.56;;;6.29;100.00
15794;BME280;7999;51.208;4.244;2023-02-11T08:56:56;103572.50;;;6.32;100.00
15794;BME280;7999;51.208;4.244;2023-02-11T08:59:23;103586.00;;;6.28;100.00
15794;BME280;7999;51.208;4.244;2023-02-11T09:01:49;103586.41;;;6.34;100.00
15794;BME280;7999;51.208;4.244;2023-02-11T09:04:18;103578.81;;;6.37;100.00
15794;BME280;7999;51.208;4.244;2023-02-11T09:06:46;103586.31;;;6.47;100.00
15794;BME280;7999;51.208;4.244;2023-02-11T09:09:13;103582.50;;;6.56;100.00
15794;BME280;7999;51.208;4.244;2023-02-11T09:11:41;103579.38;;;6.46;100.00
15794;BME280;7999;51.208;4.244;2023-02-11T09:14:10;103587.50;;;6.53;100.00
15794;BME280;7999;51.208;4.244;2023-02-11T09:16:40;103584.84;;;6.66;100.00
15794;BME280;7999;51.208;4.244;2023-02-11T09:19:08;103577.38;;;6.85;100.00
15794;BME280;7999;51.208;4.244;2023-02-11T09:21:36;103578.59;;;6.77;100.00
15794;BME280;7999;51.208;4.244;2023-02-11T09:24:03;103581.47;;;6.81;100.00
15794;BME280;7999;51.208;4.244;2023-02-11T09:26:31;103576.28;;;6.67;100.00
15794;BME280;7999;51.208;4.244;2023-02-11T09:28:58;103582.34;;;6.82;100.00
15794;BME280;7999;51.208;4.244;2023-02-11T09:31:26;103579.50;;;6.77;100.00
15794;BME280;7999;51.208;4.244;2023-02-11T09:33:54;103593.25;;;6.91;100.00
15794;BME280;7999;51.208;4.244;2023-02-11T09:36:21;103586.47;;;6.93;100.00
15794;BME280;7999;51.208;4.244;2023-02-11T09:38:50;103583.78;;;7.06;100.00
15794;BME280;7999;51.208;4.244;2023-02-11T09:41:22;103580.56;;;7.10;100.00
15794;BME280;7999;51.208;4.244;2023-02-11T09:43:52;103583.44;;;7.15;100.00
15794;BME280;7999;51.208;4.244;2023-02-11T09:46:19;103582.19;;;7.23;100.00
15794;BME280;7999;51.208;4.244;2023-02-11T09:48:47;103586.13;;;7.17;100.00
15794;BME280;7999;51.208;4.244;2023-02-11T09:51:18;103591.13;;;7.13;100.00
15794;BME280;7999;51.208;4.244;2023-02-11T09:53:45;103586.25;;;7.34;100.00
15794;BME280;7999;51.208;4.244;2023-02-11T09:56:16;103587.31;;;7.53;100.00
15794;BME280;7999;51.208;4.244;2023-02-11T09:58:43;103583.34;;;7.59;100.00
15794;BME280;7999;51.208;4.244;2023-02-11T10:01:13;103578.41;;;7.79;100.00
15794;BME280;7999;51.208;4.244;2023-02-11T10:06:43;103587.06;;;7.48;100.00
15794;BME280;7999;51.208;4.244;2023-02-11T10:09:17;103593.38;;;7.53;100.00
15794;BME280;7999;51.208;4.244;2023-02-11T10:11:51;103598.56;;;7.53;100.00
15794;BME280;7999;51.208;4.244;2023-02-11T10:14:24;103601.38;;;7.72;100.00
15794;BME280;7999;51.208;4.244;2023-02-11T10:17:00;103599.63;;;7.57;100.00
15794;BME280;7999;51.208;4.244;2023-02-11T10:19:33;103596.94;;;7.55;100.00
15794;BME280;7999;51.208;4.244;2023-02-11T10:22:06;103607.78;;;7.64;100.00
15794;BME280;7999;51.208;4.244;2023-02-11T10:24:35;103605.22;;;7.64;100.00
15794;BME280;7999;51.208;4.244;2023-02-11T10:27:05;103613.69;;;7.62;100.00
15794;BME280;7999;51.208;4.244;2023-02-11T10:29:39;103607.03;;;7.82;100.00
15794;BME280;7999;51.208;4.244;2023-02-11T10:32:12;103615.22;;;7.89;100.00
15794;BME280;7999;51.208;4.244;2023-02-11T10:34:40;103615.47;;;7.94;100.00
15794;BME280;7999;51.208;4.244;2023-02-11T10:37:07;103609.13;;;8.03;100.00
15794;BME280;7999;51.208;4.244;2023-02-11T10:39:34;103611.16;;;7.78;100.00
15794;BME280;7999;51.208;4.244;2023-02-11T10:42:06;103604.50;;;7.98;100.00
15794;BME280;7999;51.208;4.244;2023-02-11T10:44:35;103607.53;;;7.91;100.00
15794;BME280;7999;51.208;4.244;2023-02-11T10:47:03;103611.63;;;8.02;100.00
15794;BME280;7999;51.208;4.244;2023-02-11T10:49:40;103610.91;;;8.04;100.00
15794;BME280;7999;51.208;4.244;2023-02-11T10:52:16;103608.41;;;8.06;100.00
15794;BME280;7999;51.208;4.244;2023-02-11T10:54:54;103605.16;;;8.10;100.00
15794;BME280;7999;51.208;4.244;2023-02-11T10:57:22;103610.00;;;8.20;100.00
15794;BME280;7999;51.208;4.244;2023-02-11T10:59:54;103613.94;;;8.28;100.00
15794;BME280;7999;51.208;4.244;2023-02-11T11:02:22;103615.41;;;8.40;100.00
15794;BME280;7999;51.208;4.244;2023-02-11T11:04:50;103618.47;;;8.49;100.00
15794;BME280;7999;51.208;4.244;2023-02-11T11:07:22;103617.19;;;8.57;100.00
15794;BME280;7999;51.208;4.244;2023-02-11T11:09:50;103614.38;;;8.52;100.00
15794;BME280;7999;51.208;4.244;2023-02-11T11:15:17;103619.28;;;8.64;100.00
15794;BME280;7999;51.208;4.244;2023-02-11T11:17:46;103609.72;;;8.63;100.00
15794;BME280;7999;51.208;4.244;2023-02-11T11:20:23;103605.44;;;8.63;100.00
15794;BME280;7999;51.208;4.244;2023-02-11T11:22:51;103610.19;;;8.72;100.00
15794;BME280;7999;51.208;4.244;2023-02-11T11:25:23;103603.41;;;8.58;100.00
15794;BME280;7999;51.208;4.244;2023-02-11T11:27:53;103609.81;;;8.48;100.00
15794;BME280;7999;51.208;4.244;2023-02-11T11:30:22;103615.25;;;8.53;100.00
15794;BME280;7999;51.208;4.244;2023-02-11T11:32:52;103607.31;;;8.50;100.00
15794;BME280;7999;51.208;4.244;2023-02-11T11:35:20;103619.47;;;8.51;100.00
15794;BME280;7999;51.208;4.244;2023-02-11T11:37:51;103619.13;;;8.77;100.00
15794;BME280;7999;51.208;4.244;2023-02-11T11:40:21;103615.22;;;8.85;100.00
15794;BME280;7999;51.208;4.244;2023-02-11T11:43:00;103609.38;;;8.73;100.00
15794;BME280;7999;51.208;4.244;2023-02-11T11:45:29;103617.97;;;8.72;100.00
15794;BME280;7999;51.208;4.244;2023-02-11T11:47:57;103616.13;;;8.70;100.00
15794;BME280;7999;51.208;4.244;2023-02-11T11:50:26;103612.63;;;8.69;100.00
15794;BME280;7999;51.208;4.244;2023-02-11T11:52:55;103612.31;;;8.47;100.00
15794;BME280;7999;51.208;4.244;2023-02-11T11:55:25;103617.66;;;8.82;100.00
15794;BME280;7999;51.208;4.244;2023-02-11T11:57:52;103618.56;;;9.01;100.00
15794;BME280;7999;51.208;4.244;2023-02-11T12:00:20;103606.66;;;9.04;100.00
15794;BME280;7999;51.208;4.244;2023-02-11T12:05:45;103617.91;;;8.71;100.00
15794;BME280;7999;51.208;4.244;2023-02-11T12:08:16;103620.03;;;8.61;100.00
15794;BME280;7999;51.208;4.244;2023-02-11T12:10:49;103622.50;;;8.76;100.00
15794;BME280;7999;51.208;4.244;2023-02-11T12:13:32;103623.50;;;8.62;100.00
15794;BME280;7999;51.208;4.244;2023-02-11T12:16:03;103622.31;;;8.55;100.00
15794;BME280;7999;51.208;4.244;2023-02-11T12:18:39;103624.63;;;8.83;100.00
15794;BME280;7999;51.208;4.244;2023-02-11T12:21:20;103627.69;;;8.92;100.00
15794;BME280;7999;51.208;4.244;2023-02-11T12:23:52;103622.88;;;9.00;100.00
15794;BME280;7999;51.208;4.244;2023-02-11T12:26:25;103615.13;;;9.18;100.00
15794;BME280;7999;51.208;4.244;2023-02-11T12:28:57;103623.13;;;9.05;100.00
15794;BME280;7999;51.208;4.244;2023-02-11T12:31:29;103626.50;;;9.04;100.00
15794;BME280;7999;51.208;4.244;2023-02-11T12:34:08;103638.72;;;8.88;100.00
15794;BME280;7999;51.208;4.244;2023-02-11T12:36:44;103629.59;;;9.13;100.00
15794;BME280;7999;51.208;4.244;2023-02-11T12:39:21;103629.91;;;9.03;100.00
15794;BME280;7999;51.208;4.244;2023-02-11T12:41:56;103627.75;;;8.94;100.00
15794;BME280;7999;51.208;4.244;2023-02-11T12:44:44;103632.56;;;8.86;100.00
15794;BME280;7999;51.208;4.244;2023-02-11T12:47:17;103634.28;;;9.04;100.00
15794;BME280;7999;51.208;4.244;2023-02-11T12:49:50;103629.63;;;8.96;100.00
15794;BME280;7999;51.208;4.244;2023-02-11T12:52:28;103629.66;;;8.80;100.00
15794;BME280;7999;51.208;4.244;2023-02-11T12:55:00;103629.81;;;8.83;100.00
15794;BME280;7999;51.208;4.244;2023-02-11T12:57:29;103626.56;;;8.71;100.00
15794;BME280;7999;51.208;4.244;2023-02-11T12:59:58;103628.84;;;8.65;100.00
15794;BME280;7999;51.208;4.244;2023-02-11T13:02:33;103623.31;;;8.91;100.00
15794;BME280;7999;51.208;4.244;2023-02-11T13:05:03;103622.84;;;8.82;100.00
15794;BME280;7999;51.208;4.244;2023-02-11T13:07:33;103619.78;;;9.07;100.00
15794;BME280;7999;51.208;4.244;2023-02-11T13:10:03;103621.97;;;8.99;100.00
15794;BME280;7999;51.208;4.244;2023-02-11T13:12:31;103613.66;;;8.89;100.00
15794;BME280;7999;51.208;4.244;2023-02-11T13:15:16;103615.00;;;8.98;100.00
15794;BME280;7999;51.208;4.244;2023-02-11T13:17:45;103608.34;;;9.04;100.00
15794;BME280;7999;51.208;4.244;2023-02-11T13:20:19;103605.84;;;9.05;100.00